Darstellungsparameter: Aktuell verwendete Einstellungen:
Skalierung der Graphiken ... ?
xyx+y,   Skalierungsfaktor:      Skalierung: Modus: x, Faktor: 1
Darstellungszeitraum ... ?
Vom - - bis: - -   Zeitraum: 21.03.2021 - 21.03.2021
Min/Max/Avg-Anzeige ... ?
Zeige MMA aktuell
Zeige MMA Monat
Zeige MMA alles
Zeige --A aktuell
Zeige --A Monat
Zeige --A alles
Keine MMA-Anzeige
MMA:
Keine MMA-Graphiken
MMA-Basis: 21.03.2021 - 21.03.2021
Quicknavigation für Darstellung... ?
Tage:      1T, 2T, 3T, 5T -1T -2T -3T -5T +1T +2T +3T +5T
Wochen: 1W, 2W, 3W -1W -2W -3W +1W +2W +3W
Monate: 1M, 3M, 6M -1M -3M -6M +1M +3M +6M
Jahre:    1J, 3J, 5J, 10J -1J -3J -5J -10J +1J +3J +5J +10J
Nutze für die Darstellung ... ?
Originaldaten oder Mittelwerte auf ...
Stundenbasis Tagesbasis Wochenbasis
Monatsbasis Jahresbasis      Datenbasis: Original-Daten
Darstellen als:
Statistik (Auto) Statistik J:M      Darstellung:
Zur Graphik,    zurück zur Übersicht aller Sensoren.
 
Tabellarische Datenbersicht: ?
 
Sensor: Nr:Datum:Temp:Feuchte:Taupunkt:
Aussen-T/F 1 21-03-2021 00:00:00 4.4 C 72 % -0.19 C
2 21-03-2021 00:05:00 4.4 C 73 % 0 C
3 21-03-2021 00:10:00 4.4 C 74 % 0.18 C
4 21-03-2021 00:15:00 4.4 C 71 % -0.39 C
5 21-03-2021 00:20:00 4.4 C 73 % 0 C
6 21-03-2021 00:25:00 4.4 C 70 % -0.58 C
7 21-03-2021 00:30:00 4.5 C 69 % -0.68 C
8 21-03-2021 00:35:00 4.6 C 71 % -0.19 C
9 21-03-2021 00:40:00 4.6 C 70 % -0.39 C
10 21-03-2021 00:45:00 4.6 C 70 % -0.39 C
11 21-03-2021 00:50:00 4.7 C 71 % -0.1 C
12 21-03-2021 00:55:00 4.6 C 72 % 0 C
13 21-03-2021 01:00:00 4.6 C 71 % -0.19 C
14 21-03-2021 01:05:00 4.6 C 71 % -0.19 C
15 21-03-2021 01:10:00 4.6 C 70 % -0.39 C
16 21-03-2021 01:15:00 4.6 C 72 % 0 C
17 21-03-2021 01:20:00 4.6 C 70 % -0.39 C
18 21-03-2021 01:25:00 4.6 C 71 % -0.19 C
19 21-03-2021 01:30:00 4.6 C 70 % -0.39 C
20 21-03-2021 01:35:00 4.6 C 71 % -0.19 C
21 21-03-2021 01:40:00 4.6 C 71 % -0.19 C
22 21-03-2021 01:45:00 4.6 C 71 % -0.19 C
23 21-03-2021 01:50:00 4.6 C 73 % 0.19 C
24 21-03-2021 01:55:00 4.7 C 72 % 0.09 C
25 21-03-2021 02:00:00 4.7 C 72 % 0.09 C
Sensor: Nr:Datum:Temp:Feuchte:Taupunkt:
Aussen-T/F 26 21-03-2021 02:05:00 4.7 C 72 % 0.09 C
27 21-03-2021 02:10:00 4.7 C 72 % 0.09 C
28 21-03-2021 02:15:00 4.7 C 72 % 0.09 C
29 21-03-2021 02:20:00 4.7 C 72 % 0.09 C
30 21-03-2021 02:25:00 4.7 C 73 % 0.28 C
31 21-03-2021 02:30:00 4.7 C 73 % 0.28 C
32 21-03-2021 02:35:00 4.7 C 74 % 0.47 C
33 21-03-2021 02:40:00 4.7 C 75 % 0.66 C
34 21-03-2021 02:45:00 4.8 C 75 % 0.75 C
35 21-03-2021 02:50:00 4.8 C 75 % 0.75 C
36 21-03-2021 02:55:00 4.8 C 76 % 0.94 C
37 21-03-2021 03:00:00 4.9 C 76 % 1.03 C
38 21-03-2021 03:05:00 4.9 C 76 % 1.03 C
39 21-03-2021 03:10:00 5 C 77 % 1.31 C
40 21-03-2021 03:15:00 5.2 C 80 % 2.04 C
41 21-03-2021 03:20:00 5.3 C 80 % 2.14 C
42 21-03-2021 03:25:00 5.4 C 81 % 2.41 C
43 21-03-2021 03:30:00 5.4 C 81 % 2.41 C
44 21-03-2021 03:35:00 5.4 C 82 % 2.58 C
45 21-03-2021 03:40:00 5.3 C 83 % 2.65 C
46 21-03-2021 03:45:00 5.3 C 83 % 2.65 C
47 21-03-2021 03:50:00 5.2 C 84 % 2.72 C
48 21-03-2021 03:55:00 5.2 C 84 % 2.72 C
49 21-03-2021 04:00:00 5.1 C 84 % 2.63 C
50 21-03-2021 04:05:00 5 C 84 % 2.53 C
Sensor: Nr:Datum:Temp:Feuchte:Taupunkt:
Aussen-T/F 51 21-03-2021 04:10:00 4.9 C 85 % 2.6 C
52 21-03-2021 04:15:00 4.9 C 86 % 2.76 C
53 21-03-2021 04:20:00 4.9 C 86 % 2.76 C
54 21-03-2021 04:25:00 4.9 C 86 % 2.76 C
55 21-03-2021 04:30:00 4.9 C 87 % 2.92 C
56 21-03-2021 04:35:00 4.9 C 87 % 2.92 C
57 21-03-2021 04:40:00 4.9 C 87 % 2.92 C
58 21-03-2021 04:45:00 4.8 C 87 % 2.82 C
59 21-03-2021 04:50:00 4.8 C 88 % 2.99 C
60 21-03-2021 04:55:00 4.8 C 88 % 2.99 C
61 21-03-2021 05:00:00 4.8 C 88 % 2.99 C
62 21-03-2021 05:05:00 4.7 C 88 % 2.89 C
63 21-03-2021 05:10:00 4.7 C 89 % 3.05 C
64 21-03-2021 05:15:00 4.6 C 89 % 2.95 C
65 21-03-2021 05:20:00 4.6 C 89 % 2.95 C
66 21-03-2021 05:25:00 4.6 C 89 % 2.95 C
67 21-03-2021 05:30:00 4.5 C 89 % 2.85 C
68 21-03-2021 05:35:00 4.5 C 89 % 2.85 C
69 21-03-2021 05:40:00 4.4 C 89 % 2.75 C
70 21-03-2021 05:45:00 4.4 C 89 % 2.75 C
71 21-03-2021 05:50:00 4.4 C 89 % 2.75 C
72 21-03-2021 05:55:00 4.4 C 90 % 2.91 C
73 21-03-2021 06:00:00 4.4 C 90 % 2.91 C
74 21-03-2021 06:05:00 4.4 C 90 % 2.91 C
75 21-03-2021 06:10:00 4.4 C 90 % 2.91 C
Sensor: Nr:Datum:Temp:Feuchte:Taupunkt:
Aussen-T/F 76 21-03-2021 06:15:00 4.4 C 90 % 2.91 C
77 21-03-2021 06:20:00 4.4 C 90 % 2.91 C
78 21-03-2021 06:25:00 4.4 C 90 % 2.91 C
79 21-03-2021 06:30:00 4.4 C 91 % 3.06 C
80 21-03-2021 06:35:00 4.3 C 91 % 2.96 C
81 21-03-2021 06:40:00 4.3 C 91 % 2.96 C
82 21-03-2021 06:45:00 4.3 C 91 % 2.96 C
83 21-03-2021 06:50:00 4.3 C 92 % 3.12 C
84 21-03-2021 06:55:00 4.4 C 92 % 3.22 C
85 21-03-2021 07:00:00 4.4 C 92 % 3.22 C
86 21-03-2021 07:05:00 4.4 C 92 % 3.22 C
87 21-03-2021 07:10:00 4.4 C 92 % 3.22 C
88 21-03-2021 07:15:00 4.4 C 92 % 3.22 C
89 21-03-2021 07:20:00 4.4 C 92 % 3.22 C
90 21-03-2021 07:25:00 4.4 C 93 % 3.37 C
91 21-03-2021 07:30:00 4.4 C 93 % 3.37 C
92 21-03-2021 07:35:00 4.4 C 93 % 3.37 C
93 21-03-2021 07:40:00 4.5 C 93 % 3.47 C
94 21-03-2021 07:45:00 4.5 C 93 % 3.47 C
95 21-03-2021 07:50:00 4.5 C 93 % 3.47 C
96 21-03-2021 07:55:00 4.6 C 93 % 3.57 C
97 21-03-2021 08:00:00 4.6 C 93 % 3.57 C
98 21-03-2021 08:05:00 4.6 C 93 % 3.57 C
99 21-03-2021 08:10:00 4.7 C 93 % 3.67 C
100 21-03-2021 08:15:00 4.7 C 93 % 3.67 C
Sensor: Nr:Datum:Temp:Feuchte:Taupunkt:
Aussen-T/F 101 21-03-2021 08:20:00 4.8 C 93 % 3.77 C
102 21-03-2021 08:25:00 4.8 C 93 % 3.77 C
103 21-03-2021 08:30:00 4.8 C 93 % 3.77 C
104 21-03-2021 08:35:00 4.9 C 93 % 3.87 C
105 21-03-2021 08:40:00 4.9 C 93 % 3.87 C
106 21-03-2021 08:45:00 4.9 C 93 % 3.87 C
107 21-03-2021 08:50:00 5 C 93 % 3.96 C
108 21-03-2021 08:55:00 5.1 C 93 % 4.06 C
109 21-03-2021 09:00:00 5.1 C 93 % 4.06 C
110 21-03-2021 09:05:00 5.2 C 93 % 4.16 C
111 21-03-2021 09:10:00 5.2 C 93 % 4.16 C
112 21-03-2021 09:15:00 5.3 C 93 % 4.26 C
113 21-03-2021 09:20:00 5.3 C 93 % 4.26 C
114 21-03-2021 09:25:00 5.5 C 93 % 4.46 C
115 21-03-2021 09:30:00 5.6 C 93 % 4.56 C
116 21-03-2021 09:35:00 5.7 C 93 % 4.66 C
117 21-03-2021 09:40:00 5.8 C 94 % 4.91 C
118 21-03-2021 09:45:00 5.9 C 93 % 4.86 C
119 21-03-2021 09:50:00 6 C 93 % 4.96 C
120 21-03-2021 09:55:00 6.1 C 93 % 5.06 C
121 21-03-2021 10:00:00 6.1 C 92 % 4.9 C
122 21-03-2021 10:05:00 6.2 C 92 % 5 C
123 21-03-2021 10:10:00 6.3 C 92 % 5.1 C
124 21-03-2021 10:15:00 6.4 C 92 % 5.2 C
125 21-03-2021 10:20:00 6.5 C 91 % 5.14 C
Sensor: Nr:Datum:Temp:Feuchte:Taupunkt:
Aussen-T/F 126 21-03-2021 10:25:00 6.6 C 90 % 5.08 C
127 21-03-2021 10:30:00 6.6 C 89 % 4.92 C
128 21-03-2021 10:35:00 6.7 C 89 % 5.02 C
129 21-03-2021 10:40:00 6.7 C 88 % 4.86 C
130 21-03-2021 10:45:00 6.8 C 88 % 4.96 C
131 21-03-2021 10:50:00 6.8 C 87 % 4.79 C
132 21-03-2021 10:55:00 6.8 C 87 % 4.79 C
133 21-03-2021 11:00:00 6.8 C 87 % 4.79 C
134 21-03-2021 11:05:00 6.9 C 88 % 5.05 C
135 21-03-2021 11:10:00 7 C 88 % 5.15 C
136 21-03-2021 11:15:00 7.1 C 87 % 5.09 C
137 21-03-2021 11:20:00 7.2 C 87 % 5.19 C
138 21-03-2021 11:25:00 7.3 C 86 % 5.12 C
139 21-03-2021 11:30:00 7.3 C 85 % 4.95 C
140 21-03-2021 11:35:00 7.3 C 85 % 4.95 C
141 21-03-2021 11:40:00 7.4 C 85 % 5.05 C
142 21-03-2021 11:45:00 7.4 C 85 % 5.05 C
143 21-03-2021 11:50:00 7.4 C 84 % 4.88 C
144 21-03-2021 11:55:00 7.4 C 84 % 4.88 C
145 21-03-2021 12:00:00 7.4 C 83 % 4.71 C
146 21-03-2021 12:05:00 7.4 C 84 % 4.88 C
147 21-03-2021 12:10:00 7.4 C 83 % 4.71 C
148 21-03-2021 12:15:00 7.4 C 84 % 4.88 C
149 21-03-2021 12:20:00 7.4 C 83 % 4.71 C
150 21-03-2021 12:25:00 7.4 C 82 % 4.53 C
Sensor: Nr:Datum:Temp:Feuchte:Taupunkt:
Aussen-T/F 151 21-03-2021 12:30:00 7.6 C 83 % 4.9 C
152 21-03-2021 12:35:00 7.7 C 82 % 4.83 C
153 21-03-2021 12:40:00 7.8 C 81 % 4.75 C
154 21-03-2021 12:45:00 7.9 C 80 % 4.67 C
155 21-03-2021 12:50:00 7.9 C 79 % 4.49 C
156 21-03-2021 12:55:00 7.9 C 78 % 4.31 C
157 21-03-2021 13:00:00 8 C 79 % 4.59 C
158 21-03-2021 13:05:00 8 C 79 % 4.59 C
159 21-03-2021 13:10:00 8.1 C 79 % 4.68 C
160 21-03-2021 13:15:00 8.2 C 77 % 4.42 C
161 21-03-2021 13:20:00 8.3 C 74 % 3.95 C
162 21-03-2021 13:25:00 8.2 C 74 % 3.85 C
163 21-03-2021 13:30:00 8.1 C 73 % 3.56 C
164 21-03-2021 13:35:00 8.1 C 74 % 3.75 C
165 21-03-2021 13:40:00 8.2 C 72 % 3.46 C
166 21-03-2021 13:45:00 8.2 C 72 % 3.46 C
167 21-03-2021 13:50:00 8.2 C 71 % 3.26 C
168 21-03-2021 13:55:00 8.2 C 71 % 3.26 C
169 21-03-2021 14:00:00 8.2 C 71 % 3.26 C
170 21-03-2021 14:05:00 8.3 C 71 % 3.36 C
171 21-03-2021 14:10:00 8.4 C 70 % 3.26 C
172 21-03-2021 14:15:00 8.4 C 70 % 3.26 C
173 21-03-2021 14:20:00 8.3 C 70 % 3.16 C
174 21-03-2021 14:25:00 8.3 C 71 % 3.36 C
175 21-03-2021 14:30:00 8.3 C 72 % 3.56 C
Sensor: Nr:Datum:Temp:Feuchte:Taupunkt:
Aussen-T/F 176 21-03-2021 14:35:00 8.4 C 71 % 3.46 C
177 21-03-2021 14:40:00 8.4 C 70 % 3.26 C
178 21-03-2021 14:45:00 8.3 C 72 % 3.56 C
179 21-03-2021 14:50:00 8.3 C 72 % 3.56 C
180 21-03-2021 14:55:00 8.2 C 72 % 3.46 C
181 21-03-2021 15:00:00 8.3 C 72 % 3.56 C
182 21-03-2021 15:05:00 8.3 C 71 % 3.36 C
183 21-03-2021 15:10:00 8.3 C 70 % 3.16 C
184 21-03-2021 15:15:00 8.4 C 69 % 3.05 C
185 21-03-2021 15:20:00 8.3 C 69 % 2.96 C
186 21-03-2021 15:25:00 8.3 C 69 % 2.96 C
187 21-03-2021 15:30:00 8.3 C 70 % 3.16 C
188 21-03-2021 15:35:00 8.3 C 69 % 2.96 C
189 21-03-2021 15:40:00 8.3 C 69 % 2.96 C
190 21-03-2021 15:45:00 8.4 C 69 % 3.05 C
191 21-03-2021 15:50:00 8.3 C 69 % 2.96 C
192 21-03-2021 15:55:00 8.3 C 68 % 2.75 C
193 21-03-2021 16:00:00 8.3 C 68 % 2.75 C
194 21-03-2021 16:05:00 8.3 C 68 % 2.75 C
195 21-03-2021 16:10:00 8.3 C 69 % 2.96 C
196 21-03-2021 16:15:00 8.3 C 68 % 2.75 C
197 21-03-2021 16:20:00 8.4 C 69 % 3.05 C
198 21-03-2021 16:25:00 8.5 C 67 % 2.73 C
199 21-03-2021 16:30:00 8.6 C 66 % 2.62 C
200 21-03-2021 16:35:00 8.6 C 67 % 2.83 C
Sensor: Nr:Datum:Temp:Feuchte:Taupunkt:
Aussen-T/F 201 21-03-2021 16:40:00 8.6 C 67 % 2.83 C
202 21-03-2021 16:45:00 8.6 C 67 % 2.83 C
203 21-03-2021 16:50:00 8.7 C 68 % 3.13 C
204 21-03-2021 16:55:00 8.6 C 67 % 2.83 C
205 21-03-2021 17:00:00 8.4 C 66 % 2.43 C
206 21-03-2021 17:05:00 8.3 C 67 % 2.54 C
207 21-03-2021 17:10:00 8.2 C 68 % 2.66 C
208 21-03-2021 17:15:00 8.3 C 68 % 2.75 C
209 21-03-2021 17:20:00 8.3 C 67 % 2.54 C
210 21-03-2021 17:25:00 8.3 C 67 % 2.54 C
211 21-03-2021 17:30:00 8.3 C 67 % 2.54 C
212 21-03-2021 17:35:00 8.3 C 67 % 2.54 C
213 21-03-2021 17:40:00 8.3 C 67 % 2.54 C
214 21-03-2021 17:45:00 8.2 C 67 % 2.45 C
215 21-03-2021 17:50:00 8.2 C 68 % 2.66 C
216 21-03-2021 17:55:00 8.1 C 68 % 2.56 C
217 21-03-2021 18:00:00 7.9 C 69 % 2.57 C
218 21-03-2021 18:05:00 7.8 C 69 % 2.48 C
219 21-03-2021 18:10:00 7.7 C 70 % 2.58 C
220 21-03-2021 18:15:00 7.6 C 69 % 2.29 C
221 21-03-2021 18:20:00 7.6 C 69 % 2.29 C
222 21-03-2021 18:25:00 7.5 C 70 % 2.39 C
223 21-03-2021 18:30:00 7.4 C 70 % 2.3 C
224 21-03-2021 18:35:00 7.3 C 70 % 2.2 C
225 21-03-2021 18:40:00 7.2 C 70 % 2.11 C
Sensor: Nr:Datum:Temp:Feuchte:Taupunkt:
Aussen-T/F 226 21-03-2021 18:45:00 7.2 C 70 % 2.11 C
227 21-03-2021 18:50:00 7.1 C 70 % 2.01 C
228 21-03-2021 18:55:00 7.1 C 71 % 2.21 C
229 21-03-2021 19:00:00 6.9 C 71 % 2.02 C
230 21-03-2021 19:05:00 6.9 C 72 % 2.21 C
231 21-03-2021 19:10:00 6.8 C 72 % 2.12 C
232 21-03-2021 19:15:00 6.7 C 72 % 2.02 C
233 21-03-2021 19:20:00 6.6 C 73 % 2.12 C
234 21-03-2021 19:25:00 6.5 C 73 % 2.02 C
235 21-03-2021 19:30:00 6.4 C 73 % 1.92 C
236 21-03-2021 19:35:00 6.4 C 73 % 1.92 C
237 21-03-2021 19:40:00 6.4 C 73 % 1.92 C
238 21-03-2021 19:45:00 6.4 C 74 % 2.11 C
239 21-03-2021 19:50:00 6.3 C 74 % 2.02 C
240 21-03-2021 19:55:00 6.3 C 74 % 2.02 C
241 21-03-2021 20:00:00 6.2 C 75 % 2.11 C
242 21-03-2021 20:05:00 6.1 C 75 % 2.01 C
243 21-03-2021 20:10:00 6.1 C 75 % 2.01 C
244 21-03-2021 20:15:00 6.2 C 75 % 2.11 C
245 21-03-2021 20:20:00 6.2 C 75 % 2.11 C
246 21-03-2021 20:25:00 6.1 C 75 % 2.01 C
247 21-03-2021 20:30:00 6.1 C 76 % 2.2 C
248 21-03-2021 20:35:00 6.1 C 76 % 2.2 C
249 21-03-2021 20:40:00 6 C 76 % 2.1 C
250 21-03-2021 20:45:00 5.9 C 77 % 2.19 C
Sensor: Nr:Datum:Temp:Feuchte:Taupunkt:
Aussen-T/F 251 21-03-2021 20:50:00 5.9 C 77 % 2.19 C
252 21-03-2021 20:55:00 5.9 C 77 % 2.19 C
253 21-03-2021 21:00:00 5.9 C 77 % 2.19 C
254 21-03-2021 21:05:00 6 C 76 % 2.1 C
255 21-03-2021 21:10:00 6.1 C 76 % 2.2 C
256 21-03-2021 21:15:00 6.1 C 76 % 2.2 C
257 21-03-2021 21:20:00 6.1 C 76 % 2.2 C
258 21-03-2021 21:25:00 6 C 76 % 2.1 C
259 21-03-2021 21:30:00 6 C 76 % 2.1 C
260 21-03-2021 21:35:00 6 C 77 % 2.28 C
261 21-03-2021 21:40:00 5.9 C 77 % 2.19 C
262 21-03-2021 21:45:00 5.8 C 77 % 2.09 C
263 21-03-2021 21:50:00 5.7 C 77 % 1.99 C
264 21-03-2021 21:55:00 5.6 C 78 % 2.07 C
265 21-03-2021 22:00:00 5.6 C 78 % 2.07 C
266 21-03-2021 22:05:00 5.5 C 78 % 1.98 C
267 21-03-2021 22:10:00 5.3 C 78 % 1.78 C
268 21-03-2021 22:15:00 5.3 C 79 % 1.96 C
269 21-03-2021 22:20:00 5.3 C 79 % 1.96 C
270 21-03-2021 22:25:00 5.3 C 79 % 1.96 C
271 21-03-2021 22:30:00 5.3 C 79 % 1.96 C
272 21-03-2021 22:35:00 5.3 C 79 % 1.96 C
273 21-03-2021 22:40:00 5.3 C 78 % 1.78 C
274 21-03-2021 22:45:00 5.2 C 78 % 1.69 C
275 21-03-2021 22:50:00 5.1 C 79 % 1.77 C
Sensor: Nr:Datum:Temp:Feuchte:Taupunkt:
Aussen-T/F 276 21-03-2021 22:55:00 5.1 C 79 % 1.77 C
277 21-03-2021 23:00:00 5.1 C 79 % 1.77 C
278 21-03-2021 23:05:00 5.1 C 79 % 1.77 C
279 21-03-2021 23:10:00 5 C 79 % 1.67 C
280 21-03-2021 23:15:00 4.9 C 79 % 1.57 C
281 21-03-2021 23:20:00 4.9 C 80 % 1.75 C
282 21-03-2021 23:25:00 4.9 C 80 % 1.75 C
283 21-03-2021 23:30:00 4.8 C 80 % 1.65 C
284 21-03-2021 23:35:00 4.7 C 79 % 1.38 C
285 21-03-2021 23:40:00 4.6 C 80 % 1.46 C
286 21-03-2021 23:45:00 4.7 C 81 % 1.73 C
287 21-03-2021 23:50:00 4.7 C 81 % 1.73 C
288 21-03-2021 23:55:00 4.7 C 81 % 1.73 C

Legende:
   Min
   Max


Maximal/Minimal-Werte vom 21.03.2021 - 21.03.2021

Sensor Min Max Avg
Temp
(Aussen-T/F)
4.3 °C
21-03-2021  06:35:00
8.7 °C
21-03-2021  16:50:00
6.11 °C
Feuchte
(Aussen-T/F)
66 %
21-03-2021  16:30:00
94 %
21-03-2021  09:40:00
79.24 %
Taupunkt
(Aussen-T/F)
-0.68 C
21-03-2021  00:30:00
5.2 C
21-03-2021  10:15:00
2.7 C

Die Daten stammen von einer Davis Vantage Pro 2 Wetter-Station und werden unter Linux mit der Software wview2wettercgi und aufbereitet. Alle Angaben erfolgen ohne Gewähr für ihre Vollständigkeit oder Richtigkeit.
Kontakt: Rainer Krienke krienke@uni-koblenz.de . Meine Webseiten an der Uni Koblenz oder privat.
Version: $Revision: 0.78 $